Time;durP1;ratioP1;P1;durP2;ratioP2;P2;SDS_P1;SDS_P2;PMS_P1;PMS_P2;Temp;Humidity;BMP_temperature;BMP_pressure;BME280_temperature;BME280_humidity;BME280_pressure;Samples;Min_cycle;Max_cycle;Signal;HPM_P1;HPM_P2
2021/10/16 00:00:32;;;;;;;31.75;28.35;;;;;;;8.64;100.00;99207.16;2072297;28;20301;-77
2021/10/16 00:01:34;;;;;;;32.17;27.37;;;;;;;8.66;100.00;99205.00;2071023;28;20313;-77
2021/10/16 00:02:38;;;;;;;31.05;27.70;;;;;;;8.69;100.00;99204.47;2071570;28;20224;-77
2021/10/16 00:03:40;;;;;;;30.02;26.83;;;;;;;8.70;100.00;99206.03;2073619;28;20319;-77
2021/10/16 00:04:42;;;;;;;30.80;26.63;;;;;;;8.68;100.00;99197.53;2071464;28;20247;-77
2021/10/16 00:05:44;;;;;;;30.00;26.83;;;;;;;8.68;100.00;99200.97;2071560;28;20612;-77
2021/10/16 00:06:45;;;;;;;29.40;26.30;;;;;;;8.73;100.00;99205.47;2071125;28;20231;-77
2021/10/16 00:07:47;;;;;;;33.67;27.15;;;;;;;8.67;100.00;99206.56;2063373;28;20259;-77
2021/10/16 00:08:48;;;;;;;33.35;26.98;;;;;;;8.66;100.00;99203.13;2070822;28;20263;-77
2021/10/16 00:09:50;;;;;;;33.57;26.53;;;;;;;8.66;100.00;99210.31;2079615;28;20273;-78
2021/10/16 00:10:51;;;;;;;29.40;26.30;;;;;;;8.68;100.00;99211.63;2072294;28;20228;-77
2021/10/16 00:11:52;;;;;;;29.60;25.70;;;;;;;8.68;100.00;99214.28;2081173;28;20241;-77
2021/10/16 00:12:53;;;;;;;28.30;25.27;;;;;;;8.65;100.00;99214.84;2071282;28;20224;-77
2021/10/16 00:13:55;;;;;;;28.50;25.60;;;;;;;8.62;100.00;99215.41;2063282;28;20315;-77
2021/10/16 00:14:56;;;;;;;27.33;24.52;;;;;;;8.61;100.00;99211.16;2071570;28;20232;-77
2021/10/16 00:15:58;;;;;;;28.98;25.92;;;;;;;8.65;100.00;99211.38;2072110;28;20255;-77
2021/10/16 00:16:59;;;;;;;31.90;25.92;;;;;;;8.65;100.00;99208.72;2072220;28;20581;-77
2021/10/16 00:18:01;;;;;;;26.75;24.15;;;;;;;8.63;100.00;99211.69;2079210;28;20228;-77
2021/10/16 00:19:02;;;;;;;28.25;24.70;;;;;;;8.67;100.00;99211.91;2079337;28;21088;-78
2021/10/16 00:20:06;;;;;;;27.47;24.23;;;;;;;8.69;100.00;99217.75;2079512;28;20792;-77
2021/10/16 00:21:07;;;;;;;28.05;25.08;;;;;;;8.72;100.00;99217.19;2073830;28;20588;-77
2021/10/16 00:22:09;;;;;;;27.03;24.33;;;;;;;8.70;100.00;99206.03;2079477;28;20223;-76
2021/10/16 00:23:12;;;;;;;29.00;23.45;;;;;;;8.73;100.00;99206.25;2079411;28;20282;-77
2021/10/16 00:24:14;;;;;;;26.10;23.30;;;;;;;8.65;100.00;99204.19;2072071;28;20227;-77
2021/10/16 00:25:15;;;;;;;28.42;25.42;;;;;;;8.69;100.00;99215.88;2070886;28;20227;-77
2021/10/16 00:26:17;;;;;;;27.20;24.37;;;;;;;8.68;100.00;99219.59;2071392;28;20223;-77
2021/10/16 00:27:18;;;;;;;27.40;24.58;;;;;;;8.66;100.00;99212.97;2071443;28;20307;-77
2021/10/16 00:28:20;;;;;;;26.60;24.03;;;;;;;8.64;100.00;99207.94;2079491;28;20226;-77
2021/10/16 00:29:22;;;;;;;27.13;24.40;;;;;;;8.69;100.00;99215.09;2071387;28;20223;-77
2021/10/16 00:30:24;;;;;;;27.42;24.65;;;;;;;8.70;100.00;99225.44;2074341;28;20283;-77
2021/10/16 00:31:25;;;;;;;27.52;24.60;;;;;;;8.71;100.00;99223.59;2073019;28;20741;-78
2021/10/16 00:32:27;;;;;;;26.83;24.03;;;;;;;8.69;100.00;99220.41;2064771;28;20678;-77
2021/10/16 00:33:27;;;;;;;26.92;24.05;;;;;;;8.66;100.00;99223.63;2072863;28;20227;-77
2021/10/16 00:34:29;;;;;;;26.33;23.63;;;;;;;8.65;100.00;99222.81;2073047;28;20299;-77
2021/10/16 00:35:31;;;;;;;26.88;24.08;;;;;;;8.65;100.00;99227.34;2067082;28;20220;-77
2021/10/16 00:36:36;;;;;;;27.10;24.20;;;;;;;8.63;100.00;99232.16;2072668;28;20231;-77
2021/10/16 00:37:38;;;;;;;26.42;23.67;;;;;;;8.61;100.00;99239.63;2072903;28;20698;-77
2021/10/16 00:38:40;;;;;;;25.75;22.80;;;;;;;8.61;100.00;99235.09;2071130;28;20224;-77
2021/10/16 00:39:40;;;;;;;26.30;23.73;;;;;;;8.59;100.00;99237.22;2080981;28;20258;-77
2021/10/16 00:40:42;;;;;;;26.27;23.27;;;;;;;8.55;100.00;99230.88;2077206;28;20227;-77
2021/10/16 00:41:43;;;;;;;26.40;23.67;;;;;;;8.54;100.00;99234.63;2073619;28;20270;-77
2021/10/16 00:42:45;;;;;;;25.90;23.23;;;;;;;8.52;100.00;99231.44;2073680;28;20223;-77
2021/10/16 00:43:46;;;;;;;26.10;23.42;;;;;;;8.54;100.00;99239.94;2073631;28;20220;-78
2021/10/16 00:44:51;;;;;;;25.75;22.95;;;;;;;8.52;100.00;99243.97;2072939;28;20758;-77
2021/10/16 00:45:52;;;;;;;25.70;23.02;;;;;;;8.55;100.00;99246.06;2072737;28;20252;-77
2021/10/16 00:46:56;;;;;;;24.23;21.77;;;;;;;8.54;100.00;99239.16;2080811;28;20219;-77
2021/10/16 00:47:57;;;;;;;23.13;20.75;;;;;;;8.52;100.00;99242.09;2073041;28;20235;-77
2021/10/16 00:48:58;;;;;;;23.53;21.27;;;;;;;8.52;100.00;99241.31;2073040;28;20311;-77
2021/10/16 00:50:00;;;;;;;23.27;20.98;;;;;;;8.53;100.00;99246.34;2081140;28;20786;-77
2021/10/16 00:51:04;;;;;;;23.38;21.27;;;;;;;8.49;100.00;99245.28;2080893;28;20592;-77
2021/10/16 00:52:05;;;;;;;23.75;21.55;;;;;;;8.46;100.00;99238.66;2072954;28;20266;-77
2021/10/16 00:53:07;;;;;;;22.90;20.80;;;;;;;8.41;100.00;99241.34;2072716;28;20270;-77
2021/10/16 00:54:08;;;;;;;23.95;21.23;;;;;;;8.40;100.00;99242.41;2080545;28;20223;-77
2021/10/16 00:55:12;;;;;;;23.70;21.33;;;;;;;8.40;100.00;99238.97;2080857;28;20310;-77
2021/10/16 00:56:13;;;;;;;23.92;21.48;;;;;;;8.37;100.00;99239.53;2072880;28;20236;-77
2021/10/16 00:57:16;;;;;;;23.00;20.63;;;;;;;8.37;100.00;99242.19;2081105;28;20219;-77
2021/10/16 00:58:18;;;;;;;22.40;19.98;;;;;;;8.44;100.00;99248.78;2081001;28;20250;-77
2021/10/16 00:59:20;;;;;;;21.90;19.80;;;;;;;8.39;100.00;99240.84;2081102;28;20227;-77
2021/10/16 01:00:21;;;;;;;22.15;20.13;;;;;;;8.37;100.00;99239.53;2088923;28;20230;-77
2021/10/16 01:01:23;;;;;;;21.98;19.77;;;;;;;8.37;100.00;99247.50;2088658;28;20658;-77
2021/10/16 01:02:24;;;;;;;22.40;20.02;;;;;;;8.34;100.00;99230.22;2089416;28;20624;-78
2021/10/16 01:03:26;;;;;;;21.47;19.40;;;;;;;8.32;100.00;99242.97;2081129;28;20227;-77
2021/10/16 01:04:29;;;;;;;22.02;19.85;;;;;;;8.28;100.00;99230.53;2072994;28;21024;-77
2021/10/16 01:05:41;;;;;;;22.15;20.15;;;;;;;8.28;100.00;99236.63;2073702;28;20300;-77
2021/10/16 01:06:44;;;;;;;22.35;20.20;;;;;;;8.27;100.00;99235.06;2081129;28;20318;-78
2021/10/16 01:07:46;;;;;;;22.38;20.17;;;;;;;8.24;100.00;99240.91;2089095;28;20222;-77
2021/10/16 01:08:46;;;;;;;23.33;20.85;;;;;;;8.23;100.00;99234.00;2081715;28;20227;-77
2021/10/16 01:09:48;;;;;;;21.10;19.33;;;;;;;8.21;100.00;99239.59;2080742;28;20761;-77
2021/10/16 01:10:49;;;;;;;21.85;19.85;;;;;;;8.31;100.00;99241.38;2080723;28;20216;-77
2021/10/16 01:11:53;;;;;;;21.73;19.83;;;;;;;8.30;100.00;99239.81;2067111;28;20755;-77
2021/10/16 01:12:55;;;;;;;22.50;20.30;;;;;;;8.26;100.00;99243.31;2068922;28;20577;-77
2021/10/16 01:13:57;;;;;;;22.55;20.38;;;;;;;8.26;100.00;99249.41;2080833;28;20238;-77
2021/10/16 01:15:02;;;;;;;22.95;20.58;;;;;;;8.25;100.00;99242.50;2078409;28;20219;-77
2021/10/16 01:16:05;;;;;;;22.30;20.20;;;;;;;8.24;100.00;99251.53;2073076;28;20220;-77
2021/10/16 01:17:06;;;;;;;23.88;21.52;;;;;;;8.17;100.00;99246.53;2072847;28;20656;-77
2021/10/16 01:18:10;;;;;;;23.23;21.00;;;;;;;8.20;100.00;99250.50;2071984;28;20223;-77
2021/10/16 01:19:14;;;;;;;23.13;20.92;;;;;;;8.18;100.00;99250.00;2072994;28;20671;-77
2021/10/16 01:20:18;;;;;;;23.25;21.08;;;;;;;8.18;100.00;99252.66;2080892;28;20216;-77
2021/10/16 01:21:21;;;;;;;22.58;20.60;;;;;;;8.17;100.00;99253.72;2088785;28;20223;-77
2021/10/16 01:22:23;;;;;;;22.65;20.65;;;;;;;8.14;100.00;99251.59;2080281;28;20313;-77
2021/10/16 01:23:23;;;;;;;23.08;20.70;;;;;;;8.16;100.00;99252.13;2072688;28;20694;-77
2021/10/16 01:24:25;;;;;;;23.30;21.10;;;;;;;8.14;100.00;99251.59;2080812;28;20572;-77
2021/10/16 01:25:28;;;;;;;22.85;20.63;;;;;;;8.14;100.00;99247.06;2081563;28;20227;-77
2021/10/16 01:26:30;;;;;;;23.60;21.40;;;;;;;8.10;100.00;99247.91;2081512;28;20227;-77
2021/10/16 01:27:32;;;;;;;24.17;21.83;;;;;;;8.07;100.00;99251.91;2081547;28;20223;-77
2021/10/16 01:28:34;;;;;;;24.25;21.00;;;;;;;8.08;100.00;99252.69;2081436;28;20247;-76
2021/10/16 01:29:36;;;;;;;24.58;20.88;;;;;;;8.06;100.00;99249.53;2081576;28;20701;-77
2021/10/16 01:30:38;;;;;;;24.80;20.48;;;;;;;8.04;100.00;99257.78;2080202;28;20219;-77
2021/10/16 01:31:38;;;;;;;23.02;20.63;;;;;;;8.01;100.00;99249.56;2080800;28;20740;-77
2021/10/16 01:32:41;;;;;;;21.87;19.73;;;;;;;8.01;100.00;99258.31;2080969;28;20242;-77
2021/10/16 01:33:42;;;;;;;22.73;20.45;;;;;;;8.05;100.00;99256.69;2072506;28;20301;-77
2021/10/16 01:34:44;;;;;;;21.97;19.87;;;;;;;8.03;100.00;99258.06;2080634;28;20281;-77
2021/10/16 01:35:57;;;;;;;21.85;19.75;;;;;;;8.05;100.00;99259.34;2080995;28;20577;-78
2021/10/16 01:37:00;;;;;;;22.27;20.08;;;;;;;8.03;100.00;99255.41;2073463;28;20666;-77
2021/10/16 01:38:05;;;;;;;22.10;20.02;;;;;;;8.00;100.00;99256.75;2073006;28;20220;-77
2021/10/16 01:39:07;;;;;;;22.00;19.97;;;;;;;7.96;100.00;99245.06;2080596;28;20239;-77
2021/10/16 01:40:10;;;;;;;21.63;19.63;;;;;;;7.97;100.00;99256.47;2063869;28;20236;-77
2021/10/16 01:41:13;;;;;;;21.08;19.05;;;;;;;7.93;100.00;99250.94;2063840;28;20268;-77
2021/10/16 01:42:14;;;;;;;21.38;19.52;;;;;;;7.90;100.00;99257.56;2072132;28;20216;-77
2021/10/16 01:43:22;;;;;;;21.48;19.15;;;;;;;7.87;100.00;99252.81;2064447;28;20276;-77
2021/10/16 01:44:24;;;;;;;20.75;18.88;;;;;;;7.81;100.00;99256.53;2064016;28;20220;-77
2021/10/16 01:45:27;;;;;;;20.92;19.02;;;;;;;7.79;100.00;99258.69;2064234;28;20225;-77
2021/10/16 01:46:32;;;;;;;21.17;19.20;;;;;;;7.76;100.00;99259.25;2064630;28;20259;-77
2021/10/16 01:47:45;;;;;;;20.40;18.40;;;;;;;7.72;100.00;99257.38;2072486;28;20734;-77
2021/10/16 01:48:46;;;;;;;20.45;18.52;;;;;;;7.68;100.00;99265.13;2064242;28;20233;-77
2021/10/16 01:49:48;;;;;;;20.47;18.67;;;;;;;7.65;100.00;99263.00;2056419;28;20229;-77
2021/10/16 01:50:49;;;;;;;20.70;18.75;;;;;;;7.63;100.00;99262.47;2056217;28;20360;-77
2021/10/16 01:52:01;;;;;;;20.98;19.00;;;;;;;7.57;100.00;99261.72;2065230;28;20229;-78
2021/10/16 01:53:09;;;;;;;20.63;18.65;;;;;;;7.54;100.00;99272.06;2063817;28;20307;-77
2021/10/16 01:54:12;;;;;;;20.13;18.33;;;;;;;7.49;100.00;99264.13;2056550;28;20232;-77
2021/10/16 01:55:21;;;;;;;20.33;18.48;;;;;;;7.46;100.00;99270.75;2064160;28;20229;-77
2021/10/16 01:56:27;;;;;;;19.92;18.20;;;;;;;7.42;100.00;99271.56;2064571;28;20235;-77
2021/10/16 01:57:29;;;;;;;20.00;18.20;;;;;;;7.42;100.00;99271.56;2072228;28;20319;-77
2021/10/16 01:58:35;;;;;;;19.73;18.02;;;;;;;7.41;100.00;99275.28;2072245;28;20294;-77
2021/10/16 01:59:49;;;;;;;19.70;17.92;;;;;;;7.34;100.00;99272.91;2071035;28;20725;-77
2021/10/16 02:01:08;;;;;;;19.05;17.45;;;;;;;7.28;100.00;99266.81;2061066;28;20308;-77
2021/10/16 02:02:10;;;;;;;19.43;17.57;;;;;;;7.31;100.00;99279.56;2064076;28;20244;-77
2021/10/16 02:03:18;;;;;;;19.05;17.48;;;;;;;7.29;100.00;99281.66;2064251;28;20468;-78
2021/10/16 02:04:39;;;;;;;18.65;16.95;;;;;;;7.25;100.00;99272.66;2062376;28;20251;-77
2021/10/16 02:05:42;;;;;;;18.65;17.10;;;;;;;7.28;100.00;99282.72;2063801;28;20224;-77
2021/10/16 02:07:08;;;;;;;18.90;17.05;;;;;;;7.27;100.00;99277.69;2066083;28;20228;-77
2021/10/16 02:08:11;;;;;;;19.25;17.35;;;;;;;7.22;100.00;99275.88;2063677;28;20236;-77
2021/10/16 02:09:14;;;;;;;19.20;17.45;;;;;;;7.20;100.00;99275.31;2056022;28;20369;-77
2021/10/16 02:10:15;;;;;;;19.33;17.42;;;;;;;7.18;100.00;99272.13;2063513;28;20233;-77
2021/10/16 02:11:19;;;;;;;19.25;17.60;;;;;;;7.18;100.00;99274.00;2064144;28;20221;-77
2021/10/16 02:12:28;;;;;;;19.23;17.48;;;;;;;7.16;100.00;99279.59;2055518;28;20233;-77
2021/10/16 02:13:29;;;;;;;19.50;17.88;;;;;;;7.18;100.00;99288.06;2056134;28;20229;-77
2021/10/16 02:14:38;;;;;;;18.88;17.30;;;;;;;7.18;100.00;99279.31;2048427;28;20704;-77
2021/10/16 02:15:43;;;;;;;19.95;18.15;;;;;;;7.20;100.00;99283.28;2055549;28;20776;-77
2021/10/16 02:17:00;;;;;;;19.80;17.58;;;;;;;7.25;100.00;99282.47;2064642;28;20225;-77
2021/10/16 02:18:01;;;;;;;19.50;17.85;;;;;;;7.27;100.00;99283.81;2056056;28;20308;-77
2021/10/16 02:19:03;;;;;;;18.57;16.87;;;;;;;7.28;100.00;99282.72;2056189;28;20232;-77
2021/10/16 02:20:07;;;;;;;18.75;17.20;;;;;;;7.32;100.00;99291.75;2056096;28;20634;-77
2021/10/16 02:21:10;;;;;;;18.90;17.20;;;;;;;7.33;100.00;99289.91;2055692;28;20285;-77
2021/10/16 02:22:18;;;;;;;19.13;17.40;;;;;;;7.32;100.00;99294.41;2056281;28;20256;-77
2021/10/16 02:23:20;;;;;;;18.85;17.23;;;;;;;7.32;100.00;99294.41;2062833;28;20229;-77
2021/10/16 02:24:21;;;;;;;19.00;17.50;;;;;;;7.31;100.00;99298.13;2063756;28;20233;-77
2021/10/16 02:25:22;;;;;;;19.27;17.80;;;;;;;7.35;100.00;99288.56;2059561;28;20237;-76
2021/10/16 02:26:24;;;;;;;19.13;17.55;;;;;;;7.36;100.00;99294.66;2065709;28;20711;-77
2021/10/16 02:27:27;;;;;;;18.08;16.58;;;;;;;7.35;100.00;99293.88;2055947;28;20275;-77
2021/10/16 02:28:31;;;;;;;19.90;18.00;;;;;;;7.38;100.00;99300.50;2055808;28;20226;-77
2021/10/16 02:29:47;;;;;;;19.15;17.33;;;;;;;7.40;100.00;99300.25;2068787;28;20228;-77
2021/10/16 02:30:49;;;;;;;18.70;17.07;;;;;;;7.39;100.00;99301.31;2063754;28;20763;-77
2021/10/16 02:31:50;;;;;;;18.83;17.20;;;;;;;7.41;100.00;99301.84;2055846;28;20229;-77
2021/10/16 02:32:52;;;;;;;18.53;17.10;;;;;;;7.40;100.00;99292.28;2055859;28;20696;-77
2021/10/16 02:33:52;;;;;;;18.77;17.17;;;;;;;7.39;100.00;99298.66;2063308;28;20248;-77
2021/10/16 02:34:54;;;;;;;19.50;18.00;;;;;;;7.48;100.00;99294.41;2063769;28;20229;-77
2021/10/16 02:35:56;;;;;;;18.75;17.25;;;;;;;7.46;100.00;99299.16;2063921;28;20767;-76
2021/10/16 02:36:57;;;;;;;18.60;17.17;;;;;;;7.48;100.00;99303.16;2056625;28;20302;-77
2021/10/16 02:38:00;;;;;;;19.27;17.40;;;;;;;7.50;100.00;99301.00;2055859;28;20312;-77
2021/10/16 02:39:01;;;;;;;19.23;17.40;;;;;;;7.47;100.00;99306.88;2055818;28;20288;-77
2021/10/16 02:40:10;;;;;;;19.40;17.58;;;;;;;7.43;100.00;99300.50;2078116;28;20227;-77
2021/10/16 02:41:11;;;;;;;19.13;17.45;;;;;;;7.41;100.00;99307.16;2080126;28;20223;-77
2021/10/16 02:42:16;;;;;;;18.60;17.13;;;;;;;7.39;100.00;99309.28;2080065;28;20219;-77
2021/10/16 02:43:18;;;;;;;18.98;17.48;;;;;;;7.39;100.00;99301.31;2064831;28;20316;-77
2021/10/16 02:44:19;;;;;;;18.30;16.90;;;;;;;7.34;100.00;99300.25;2072075;28;20231;-77
2021/10/16 02:45:24;;;;;;;18.50;17.10;;;;;;;7.34;100.00;99299.44;2079618;28;20273;-77
2021/10/16 02:46:24;;;;;;;18.38;16.98;;;;;;;7.28;100.00;99298.66;2072005;28;20227;-76
2021/10/16 02:47:30;;;;;;;18.87;17.30;;;;;;;7.35;100.00;99304.50;2079877;28;20690;-76
2021/10/16 02:48:33;;;;;;;18.55;17.05;;;;;;;7.29;100.00;99302.91;2072392;28;20715;-77
2021/10/16 02:49:36;;;;;;;18.88;17.27;;;;;;;7.30;100.00;99312.47;2071572;28;20224;-77
2021/10/16 02:50:37;;;;;;;19.05;17.50;;;;;;;7.29;100.00;99310.06;2071416;28;20805;-76
2021/10/16 02:51:39;;;;;;;19.57;17.60;;;;;;;7.26;100.00;99316.72;2079900;28;20573;-77
2021/10/16 02:52:40;;;;;;;19.50;17.80;;;;;;;7.28;100.00;99314.59;2063518;28;20224;-77
2021/10/16 02:53:43;;;;;;;20.40;18.50;;;;;;;7.23;100.00;99319.91;2071704;28;20749;-77
2021/10/16 02:54:47;;;;;;;20.25;18.35;;;;;;;7.24;100.00;99318.06;2079396;28;20608;-76
2021/10/16 02:55:49;;;;;;;20.40;18.47;;;;;;;7.25;100.00;99325.75;2063764;28;20250;-77
2021/10/16 02:56:51;;;;;;;21.33;19.33;;;;;;;7.20;100.00;99316.97;2071254;28;20251;-77
2021/10/16 02:57:52;;;;;;;21.25;19.10;;;;;;;7.19;100.00;99316.19;2071731;28;20788;-76
2021/10/16 02:58:54;;;;;;;19.88;18.10;;;;;;;7.21;100.00;99322.03;2079880;28;20235;-77
2021/10/16 02:59:55;;;;;;;20.40;18.60;;;;;;;7.14;100.00;99318.06;2071833;28;20240;-77
2021/10/16 03:00:56;;;;;;;22.15;19.80;;;;;;;7.11;100.00;99314.06;2071870;28;20282;-77
2021/10/16 03:01:58;;;;;;;21.43;19.30;;;;;;;7.09;100.00;99317.00;2079926;28;20297;-77
2021/10/16 03:03:01;;;;;;;21.35;19.30;;;;;;;7.06;100.00;99322.84;2071634;28;20261;-77
2021/10/16 03:04:03;;;;;;;21.17;19.27;;;;;;;7.04;100.00;99326.81;2063804;28;20279;-77
2021/10/16 03:05:10;;;;;;;21.23;19.20;;;;;;;7.01;100.00;99324.69;2065756;28;20233;-77
2021/10/16 03:06:11;;;;;;;20.97;18.83;;;;;;;6.96;100.00;99333.47;2071870;28;20220;-77
2021/10/16 03:07:12;;;;;;;20.92;18.98;;;;;;;6.93;100.00;99328.66;2073757;28;20718;-77
2021/10/16 03:08:19;;;;;;;21.73;19.73;;;;;;;6.90;100.00;99333.72;2064287;28;20221;-77
2021/10/16 03:09:21;;;;;;;21.05;18.95;;;;;;;6.91;100.00;99332.66;2071798;28;20720;-77
2021/10/16 03:10:23;;;;;;;21.05;19.08;;;;;;;6.88;100.00;99325.22;2071125;28;20238;-76
2021/10/16 03:11:28;;;;;;;21.58;19.27;;;;;;;6.85;100.00;99331.84;2071587;28;20224;-77
2021/10/16 03:12:29;;;;;;;21.42;19.35;;;;;;;6.87;100.00;99328.94;2072029;28;20236;-77
2021/10/16 03:13:35;;;;;;;21.65;19.67;;;;;;;6.85;100.00;99333.69;2071776;28;20278;-77
2021/10/16 03:14:38;;;;;;;26.20;21.08;;;;;;;6.83;100.00;99330.53;2079460;28;20228;-77
2021/10/16 03:15:40;;;;;;;23.70;20.53;;;;;;;6.82;100.00;99332.38;2071644;28;20238;-77
2021/10/16 03:16:41;;;;;;;22.20;20.10;;;;;;;6.82;100.00;99334.25;2071625;28;20635;-77
2021/10/16 03:17:46;;;;;;;23.88;21.33;;;;;;;6.77;100.00;99337.66;2063709;28;20244;-77
2021/10/16 03:18:48;;;;;;;23.75;20.98;;;;;;;6.79;100.00;99336.38;2071703;28;20310;-77
2021/10/16 03:19:50;;;;;;;23.10;20.67;;;;;;;6.80;100.00;99345.91;2071799;28;20223;-77
2021/10/16 03:20:52;;;;;;;24.15;21.25;;;;;;;6.79;100.00;99344.31;2079435;28;20231;-77
2021/10/16 03:21:54;;;;;;;28.17;21.23;;;;;;;6.79;100.00;99341.66;2071544;28;20254;-77
2021/10/16 03:23:07;;;;;;;29.73;21.25;;;;;;;6.82;100.00;99347.50;2072889;28;20219;-77
2021/10/16 03:24:10;;;;;;;23.35;20.95;;;;;;;6.82;100.00;99347.50;2070057;28;20216;-77
2021/10/16 03:25:14;;;;;;;25.38;21.85;;;;;;;6.82;100.00;99345.63;2067499;28;20303;-77
2021/10/16 03:26:17;;;;;;;29.10;20.88;;;;;;;6.80;100.00;99343.25;2072293;28;20256;-77
2021/10/16 03:27:18;;;;;;;23.30;20.88;;;;;;;6.79;100.00;99346.97;2071550;28;20666;-77
2021/10/16 03:28:20;;;;;;;24.10;20.47;;;;;;;6.80;100.00;99348.56;2071479;28;20568;-77
2021/10/16 03:29:20;;;;;;;22.75;20.08;;;;;;;6.79;100.00;99346.97;2063423;28;20229;-77
2021/10/16 03:30:22;;;;;;;23.57;21.13;;;;;;;6.79;100.00;99351.47;2071534;28;20244;-77
2021/10/16 03:31:26;;;;;;;24.15;21.13;;;;;;;6.79;100.00;99343.53;2079273;28;20215;-77
2021/10/16 03:32:27;;;;;;;28.40;21.25;;;;;;;6.77;100.00;99345.63;2071407;28;20303;-77
2021/10/16 03:33:29;;;;;;;24.07;21.40;;;;;;;6.77;100.00;99346.41;2063376;28;20233;-77
2021/10/16 03:34:30;;;;;;;29.85;21.38;;;;;;;6.76;100.00;99350.13;2071176;28;20455;-77
2021/10/16 03:35:33;;;;;;;27.67;21.40;;;;;;;6.74;100.00;99343.50;2071565;28;20219;-77
2021/10/16 03:36:34;;;;;;;24.92;21.10;;;;;;;6.76;100.00;99350.13;2071664;28;20255;-77
2021/10/16 03:37:35;;;;;;;24.52;20.85;;;;;;;6.76;100.00;99346.69;2071322;28;20294;-77
2021/10/16 03:38:37;;;;;;;23.77;21.33;;;;;;;6.77;100.00;99346.41;2071448;28;20220;-77
2021/10/16 03:39:40;;;;;;;24.83;21.77;;;;;;;6.77;100.00;99351.72;2072745;28;20323;-77
2021/10/16 03:40:43;;;;;;;27.95;21.67;;;;;;;6.73;100.00;99345.38;2071828;28;20240;-77
2021/10/16 03:41:44;;;;;;;26.98;21.75;;;;;;;6.73;100.00;99348.00;2071581;28;20224;-77
2021/10/16 03:42:46;;;;;;;29.80;22.03;;;;;;;6.73;100.00;99352.53;2071408;28;20278;-77
2021/10/16 03:43:51;;;;;;;26.50;22.02;;;;;;;6.73;100.00;99353.31;2071430;28;20693;-77
2021/10/16 03:44:52;;;;;;;24.70;21.10;;;;;;;6.74;100.00;99357.56;2063034;28;20580;-76
2021/10/16 03:46:01;;;;;;;26.85;22.00;;;;;;;6.75;100.00;99358.34;2063365;28;20660;-77
2021/10/16 03:47:03;;;;;;;25.13;21.52;;;;;;;6.73;100.00;99355.97;2068260;28;20616;-77
2021/10/16 03:48:05;;;;;;;29.73;21.05;;;;;;;6.70;100.00;99353.06;2063637;28;20262;-77
2021/10/16 03:49:07;;;;;;;23.27;20.77;;;;;;;6.74;100.00;99357.56;2071430;28;20662;-77
2021/10/16 03:50:09;;;;;;;27.75;21.17;;;;;;;6.74;100.00;99356.75;2077533;28;20223;-76
2021/10/16 03:51:11;;;;;;;26.50;20.95;;;;;;;6.76;100.00;99354.63;2079634;28;20228;-77
2021/10/16 03:52:14;;;;;;;24.48;21.58;;;;;;;6.76;100.00;99357.28;2071909;28;20258;-77
2021/10/16 03:53:19;;;;;;;23.83;21.10;;;;;;;6.78;100.00;99356.00;2079638;28;20227;-77
2021/10/16 03:54:21;;;;;;;23.35;21.00;;;;;;;6.80;100.00;99356.50;2071976;28;20228;-77
2021/10/16 03:55:24;;;;;;;27.23;21.08;;;;;;;6.83;100.00;99365.78;2071375;28;20223;-76
2021/10/16 03:56:27;;;;;;;23.97;21.37;;;;;;;6.85;100.00;99357.56;2071475;28;20847;-77
2021/10/16 03:57:28;;;;;;;28.02;21.70;;;;;;;6.86;100.00;99353.84;2071447;28;20274;-76
2021/10/16 03:58:30;;;;;;;27.40;21.23;;;;;;;6.86;100.00;99359.94;2079739;28;20250;-76
2021/10/16 03:59:31;;;;;;;23.20;20.58;;;;;;;6.87;100.00;99352.81;2079463;28;20257;-77
2021/10/16 04:00:35;;;;;;;24.88;22.05;;;;;;;6.88;100.00;99349.09;2079655;28;20227;-77
2021/10/16 04:01:36;;;;;;;24.98;21.05;;;;;;;6.86;100.00;99357.31;2079562;28;20215;-77
2021/10/16 04:02:40;;;;;;;26.30;21.20;;;;;;;6.92;100.00;99348.28;2078998;28;20223;-77
2021/10/16 04:03:41;;;;;;;23.20;20.10;;;;;;;6.89;100.00;99354.13;2079531;28;20227;-77
2021/10/16 04:04:43;;;;;;;26.03;20.47;;;;;;;6.88;100.00;99357.06;2079019;28;20238;-77
2021/10/16 04:05:45;;;;;;;26.63;21.38;;;;;;;6.85;100.00;99352.25;2087574;28;20229;-77
2021/10/16 04:06:47;;;;;;;24.02;21.45;;;;;;;6.85;100.00;99357.56;2071367;28;20729;-77
2021/10/16 04:07:48;;;;;;;23.90;20.92;;;;;;;6.83;100.00;99357.03;2071544;28;20238;-77
2021/10/16 04:08:51;;;;;;;22.92;20.48;;;;;;;6.85;100.00;99362.88;2079412;28;20583;-77
2021/10/16 04:09:55;;;;;;;25.65;20.77;;;;;;;6.85;100.00;99362.88;2087311;28;20234;-76
2021/10/16 04:10:59;;;;;;;24.85;20.65;;;;;;;6.83;100.00;99365.00;2087768;28;20280;-77
2021/10/16 04:12:03;;;;;;;25.75;19.65;;;;;;;6.84;100.00;99362.06;2079478;28;20227;-77
2021/10/16 04:13:08;;;;;;;23.17;19.75;;;;;;;6.85;100.00;99354.91;2071293;28;20231;-77
2021/10/16 04:14:19;;;;;;;24.40;19.77;;;;;;;6.83;100.00;99359.69;2079378;28;20219;-77
2021/10/16 04:15:20;;;;;;;24.65;20.38;;;;;;;6.87;100.00;99353.63;2079613;28;20781;-77
2021/10/16 04:16:22;;;;;;;24.47;19.60;;;;;;;6.87;100.00;99361.56;2080271;28;20569;-77
2021/10/16 04:17:22;;;;;;;26.88;20.20;;;;;;;6.85;100.00;99350.41;2078990;28;20738;-77
2021/10/16 04:18:26;;;;;;;22.60;20.20;;;;;;;6.86;100.00;99356.50;2071436;28;20228;-77
2021/10/16 04:19:27;;;;;;;24.25;20.15;;;;;;;6.85;100.00;99353.06;2079386;28;20296;-76
2021/10/16 04:20:30;;;;;;;24.60;19.55;;;;;;;6.89;100.00;99351.47;2071405;28;20224;-77
2021/10/16 04:21:31;;;;;;;27.95;20.65;;;;;;;6.86;100.00;99354.66;2071409;28;20584;-77
2021/10/16 04:22:37;;;;;;;31.23;21.13;;;;;;;6.84;100.00;99350.69;2071814;28;20548;-77
2021/10/16 04:23:38;;;;;;;27.38;20.75;;;;;;;6.83;100.00;99360.50;2079325;28;20235;-76
2021/10/16 04:24:40;;;;;;;27.73;20.88;;;;;;;6.83;100.00;99354.38;2079403;28;20670;-77
2021/10/16 04:25:42;;;;;;;26.52;19.40;;;;;;;6.82;100.00;99361.56;2071477;28;20257;-77
2021/10/16 04:26:45;;;;;;;26.40;20.75;;;;;;;6.85;100.00;99353.06;2079397;28;20729;-77
2021/10/16 04:27:49;;;;;;;31.33;21.13;;;;;;;6.86;100.00;99359.16;2071442;28;20314;-77
2021/10/16 04:29:00;;;;;;;22.48;19.85;;;;;;;6.89;100.00;99358.66;2080358;28;20223;-77
2021/10/16 04:30:18;;;;;;;24.48;21.58;;;;;;;6.88;100.00;99363.16;2071374;28;20227;-77
2021/10/16 04:31:20;;;;;;;26.63;23.30;;;;;;;6.91;100.00;99357.31;2063291;28;20220;-77
2021/10/16 04:32:21;;;;;;;28.27;23.05;;;;;;;6.89;100.00;99358.66;2071270;28;20224;-77
2021/10/16 04:33:22;;;;;;;26.03;22.40;;;;;;;6.88;100.00;99367.66;2079002;28;20293;-76
2021/10/16 04:34:26;;;;;;;28.08;21.95;;;;;;;6.90;100.00;99362.88;2071072;28;20303;-77
2021/10/16 04:35:28;;;;;;;25.08;22.35;;;;;;;6.86;100.00;99365.25;2071190;28;20659;-77
2021/10/16 04:36:29;;;;;;;26.83;21.52;;;;;;;6.86;100.00;99359.16;2071442;28;20216;-77
2021/10/16 04:37:31;;;;;;;24.85;21.80;;;;;;;6.84;100.00;99355.97;2079417;28;20215;-77
2021/10/16 04:38:32;;;;;;;28.73;21.50;;;;;;;6.87;100.00;99360.78;2071243;28;20321;-77
2021/10/16 04:39:34;;;;;;;28.50;20.63;;;;;;;6.88;100.00;99363.16;2062944;28;20295;-77
2021/10/16 04:40:34;;;;;;;24.98;22.30;;;;;;;6.87;100.00;99363.44;2071197;28;20223;-77
2021/10/16 04:41:37;;;;;;;28.60;22.50;;;;;;;6.86;100.00;99361.81;2071233;28;20314;-77
2021/10/16 04:42:38;;;;;;;24.88;21.85;;;;;;;6.87;100.00;99358.13;2078891;28;20842;-76
2021/10/16 04:43:42;;;;;;;24.17;21.63;;;;;;;6.85;100.00;99365.53;2071267;28;20246;-77
2021/10/16 04:44:42;;;;;;;23.27;20.75;;;;;;;6.84;100.00;99363.94;2063391;28;20255;-77
2021/10/16 04:45:45;;;;;;;23.48;20.92;;;;;;;6.86;100.00;99364.47;2062944;28;20397;-77
2021/10/16 04:46:47;;;;;;;24.70;20.63;;;;;;;6.86;100.00;99365.25;2063539;28;20228;-77
2021/10/16 04:47:50;;;;;;;23.73;21.30;;;;;;;6.89;100.00;99359.44;2071071;28;20227;-77
2021/10/16 04:48:53;;;;;;;30.65;21.65;;;;;;;6.89;100.00;99363.94;2071184;28;20316;-77
2021/10/16 04:49:56;;;;;;;24.23;21.92;;;;;;;6.88;100.00;99363.16;2072510;28;20315;-77